Time;durP1;ratioP1;P1;durP2;ratioP2;P2;SDS_P1;SDS_P2;PMS_P1;PMS_P2;Temp;Humidity;BMP_temperature;BMP_pressure;BME280_temperature;BME280_humidity;BME280_pressure;Samples;Min_cycle;Max_cycle;Signal;HPM_P1;HPM_P2
2023/07/08 00:01:27;;;;;;;15.43;8.87;;;19.80;9.00;;;;;;5043853;28;20466;-68
2023/07/08 00:03:54;;;;;;;15.47;8.30;;;19.70;8.60;;;;;;5043452;28;20478;-66
2023/07/08 00:06:23;;;;;;;16.70;9.47;;;19.70;8.70;;;;;;5043000;28;20473;-68
2023/07/08 00:08:51;;;;;;;15.37;8.80;;;19.70;8.80;;;;;;5045709;28;20541;-67
2023/07/08 00:11:18;;;;;;;14.87;9.53;;;19.70;9.10;;;;;;5043849;28;21162;-67
2023/07/08 00:13:45;;;;;;;14.97;9.77;;;19.60;9.50;;;;;;5038033;28;20487;-68
2023/07/08 00:16:13;;;;;;;17.10;9.90;;;19.60;9.30;;;;;;5043413;28;20465;-68
2023/07/08 00:18:40;;;;;;;14.43;9.13;;;19.60;9.50;;;;;;5039453;28;20462;-67
2023/07/08 00:21:10;;;;;;;16.27;9.40;;;19.60;9.50;;;;;;5042845;28;20470;-67
2023/07/08 00:23:36;;;;;;;13.63;8.80;;;19.50;9.60;;;;;;5041396;28;20782;-67
2023/07/08 00:26:10;;;;;;;13.87;8.73;;;19.50;9.70;;;;;;5043418;28;20502;-67
2023/07/08 00:28:36;;;;;;;14.30;8.77;;;19.40;9.80;;;;;;5044901;28;20533;-67
2023/07/08 00:31:03;;;;;;;15.57;8.03;;;19.50;9.90;;;;;;5049501;28;21470;-67
2023/07/08 00:33:30;;;;;;;14.13;8.50;;;19.40;9.80;;;;;;5048011;28;20489;-67
2023/07/08 00:35:57;;;;;;;17.23;9.00;;;19.30;10.00;;;;;;5048933;28;20462;-67
2023/07/08 00:38:26;;;;;;;13.13;7.50;;;19.30;10.10;;;;;;5049638;28;20920;-67
2023/07/08 00:40:58;;;;;;;15.93;7.83;;;19.30;10.10;;;;;;5065776;28;20450;-67
2023/07/08 00:43:42;;;;;;;14.73;8.80;;;19.30;10.10;;;;;;5054004;28;20466;-67
2023/07/08 00:46:21;;;;;;;15.27;8.27;;;19.20;9.90;;;;;;5048247;28;20466;-67
2023/07/08 00:48:49;;;;;;;15.10;8.00;;;19.20;9.90;;;;;;5049317;28;20481;-67
2023/07/08 00:51:18;;;;;;;13.17;9.13;;;19.20;9.90;;;;;;5047581;28;20466;-67
2023/07/08 00:53:45;;;;;;;13.67;8.90;;;19.10;9.90;;;;;;5044083;28;21035;-67
2023/07/08 00:56:17;;;;;;;13.73;8.30;;;19.10;9.70;;;;;;5045848;28;20459;-67
2023/07/08 00:58:48;;;;;;;15.67;8.73;;;19.10;9.80;;;;;;5047682;28;20462;-66
2023/07/08 01:01:15;;;;;;;14.50;8.40;;;19.10;9.70;;;;;;5046987;28;20823;-66
2023/07/08 01:03:49;;;;;;;15.53;8.10;;;19.00;9.70;;;;;;5048529;28;20474;-67
2023/07/08 01:06:16;;;;;;;16.03;10.10;;;19.00;9.50;;;;;;5046750;28;20557;-67
2023/07/08 01:08:43;;;;;;;12.47;8.77;;;19.00;9.60;;;;;;5045179;28;20457;-67
2023/07/08 01:11:09;;;;;;;15.20;8.83;;;19.00;9.60;;;;;;5046316;28;20485;-67
2023/07/08 01:13:42;;;;;;;12.03;8.50;;;18.90;9.90;;;;;;5042629;28;20481;-67
2023/07/08 01:16:11;;;;;;;13.53;8.53;;;18.90;10.00;;;;;;5044491;28;20973;-67
2023/07/08 01:18:39;;;;;;;16.57;8.00;;;18.90;10.00;;;;;;5048571;28;20466;-67
2023/07/08 01:21:27;;;;;;;13.50;8.93;;;18.80;10.00;;;;;;5047216;28;20899;-67
2023/07/08 01:23:55;;;;;;;14.37;9.00;;;18.80;10.00;;;;;;5046390;28;20486;-67
2023/07/08 01:26:25;;;;;;;12.60;7.93;;;18.80;10.00;;;;;;5043800;28;20466;-67
2023/07/08 01:28:53;;;;;;;14.07;8.80;;;18.80;10.00;;;;;;5047179;28;20497;-67
2023/07/08 01:31:21;;;;;;;14.53;8.50;;;18.80;10.10;;;;;;5045867;28;20498;-68
2023/07/08 01:33:48;;;;;;;16.10;9.80;;;18.80;10.00;;;;;;5044442;28;20494;-66
2023/07/08 01:36:15;;;;;;;14.60;8.30;;;18.80;10.00;;;;;;5042425;28;20470;-68
2023/07/08 01:38:43;;;;;;;13.20;8.50;;;18.70;10.00;;;;;;5043646;28;20459;-67
2023/07/08 01:41:14;;;;;;;14.87;8.77;;;18.70;10.00;;;;;;5045874;28;20481;-69
2023/07/08 01:43:40;;;;;;;14.37;8.90;;;18.70;9.80;;;;;;5045327;28;20477;-67
2023/07/08 01:46:13;;;;;;;15.90;10.10;;;18.70;9.90;;;;;;5045612;28;20461;-67
2023/07/08 01:48:45;;;;;;;16.63;9.30;;;18.80;10.00;;;;;;5042660;28;20454;-67
2023/07/08 01:51:12;;;;;;;20.50;9.07;;;18.70;10.20;;;;;;5046822;28;20961;-67
2023/07/08 01:53:41;;;;;;;14.13;8.13;;;18.70;10.10;;;;;;5048298;28;20482;-67
2023/07/08 01:56:09;;;;;;;14.10;8.30;;;18.70;10.40;;;;;;5046979;28;20930;-67
2023/07/08 01:58:37;;;;;;;14.10;8.60;;;18.70;10.30;;;;;;5047402;28;20465;-67
2023/07/08 02:01:05;;;;;;;15.87;9.30;;;18.70;10.30;;;;;;5046761;28;20477;-66
2023/07/08 02:03:32;;;;;;;14.97;7.97;;;18.80;10.00;;;;;;5045413;28;20482;-66
2023/07/08 02:05:58;;;;;;;13.97;8.87;;;18.80;10.10;;;;;;5044154;28;20842;-66
2023/07/08 02:08:25;;;;;;;11.90;8.23;;;18.80;10.40;;;;;;5045340;28;20469;-67
2023/07/08 02:10:53;;;;;;;16.30;9.37;;;18.80;10.60;;;;;;5046240;28;20461;-66
2023/07/08 02:13:21;;;;;;;14.83;9.60;;;18.80;11.40;;;;;;5046860;28;20489;-68
2023/07/08 02:15:49;;;;;;;13.50;9.10;;;18.80;11.60;;;;;;5046627;28;20469;-68
2023/07/08 02:18:18;;;;;;;10.73;7.50;;;18.80;11.30;;;;;;5044766;28;20454;-68
2023/07/08 02:20:45;;;;;;;13.27;8.40;;;18.80;10.80;;;;;;5037351;28;20463;-68
2023/07/08 02:23:12;;;;;;;13.20;8.30;;;18.80;10.40;;;;;;5045122;28;20496;-68
2023/07/08 02:25:39;;;;;;;12.83;8.30;;;18.90;10.30;;;;;;5047143;28;20471;-68
2023/07/08 02:28:05;;;;;;;13.57;8.70;;;18.90;10.70;;;;;;5042874;28;20458;-69
2023/07/08 02:30:32;;;;;;;11.70;7.87;;;18.80;10.60;;;;;;5041291;28;21115;-68
2023/07/08 02:33:00;;;;;;;14.27;9.43;;;18.90;10.80;;;;;;5045912;28;20470;-68
2023/07/08 02:35:29;;;;;;;14.17;8.80;;;18.90;10.90;;;;;;5041994;28;20494;-68
2023/07/08 02:37:57;;;;;;;13.80;7.37;;;18.90;10.70;;;;;;5046913;28;20462;-68
2023/07/08 02:40:24;;;;;;;17.73;9.60;;;18.90;10.70;;;;;;5043725;28;20920;-68
2023/07/08 02:42:51;;;;;;;13.30;7.97;;;19.00;10.90;;;;;;5046015;28;20794;-68
2023/07/08 02:45:19;;;;;;;11.77;7.60;;;19.00;10.90;;;;;;5043676;28;20457;-68
2023/07/08 02:47:45;;;;;;;11.77;7.10;;;19.00;11.10;;;;;;5046213;28;20462;-67
2023/07/08 02:50:14;;;;;;;15.27;8.10;;;19.00;12.40;;;;;;5045473;28;20466;-67
2023/07/08 02:52:41;;;;;;;16.30;8.70;;;19.00;12.30;;;;;;5044012;28;20476;-67
2023/07/08 02:55:08;;;;;;;11.10;7.23;;;19.00;11.80;;;;;;5043124;28;20485;-68
2023/07/08 02:57:35;;;;;;;11.47;7.80;;;19.00;10.90;;;;;;5047075;28;21302;-68
2023/07/08 03:00:03;;;;;;;13.10;7.23;;;19.10;10.40;;;;;;5046014;28;20454;-67
2023/07/08 03:02:30;;;;;;;13.10;8.00;;;19.10;9.80;;;;;;5045317;28;20596;-68
2023/07/08 03:05:00;;;;;;;10.73;6.90;;;19.10;10.50;;;;;;5044260;28;20482;-69
2023/07/08 03:07:28;;;;;;;12.60;6.93;;;19.10;11.10;;;;;;5042528;28;20482;-67
2023/07/08 03:09:55;;;;;;;17.27;8.80;;;19.20;11.10;;;;;;5045353;28;20469;-68
2023/07/08 03:12:22;;;;;;;15.17;8.87;;;19.10;10.80;;;;;;5046198;28;20485;-68
2023/07/08 03:14:48;;;;;;;12.00;7.10;;;19.10;10.30;;;;;;5044877;28;20482;-68
2023/07/08 03:17:17;;;;;;;11.03;7.07;;;19.10;10.00;;;;;;5041749;28;20462;-68
2023/07/08 03:19:44;;;;;;;14.30;8.00;;;19.20;9.90;;;;;;5045091;28;20543;-68
2023/07/08 03:22:11;;;;;;;13.73;8.53;;;19.20;10.20;;;;;;5045545;28;20474;-68
2023/07/08 03:24:45;;;;;;;13.53;8.70;;;19.20;10.50;;;;;;5043321;28;20486;-68
2023/07/08 03:27:12;;;;;;;13.50;8.20;;;19.20;10.50;;;;;;5046020;28;20458;-67
2023/07/08 03:29:39;;;;;;;15.20;7.70;;;19.30;10.10;;;;;;5045173;28;20489;-67
2023/07/08 03:32:08;;;;;;;11.77;7.20;;;19.20;10.10;;;;;;5042781;28;20469;-68
2023/07/08 03:34:35;;;;;;;12.67;7.97;;;19.20;10.30;;;;;;5047594;28;20485;-67
2023/07/08 03:37:02;;;;;;;11.77;7.60;;;19.20;10.40;;;;;;5044398;28;20476;-67
2023/07/08 03:39:28;;;;;;;14.17;7.43;;;19.20;10.10;;;;;;5044291;28;20942;-68
2023/07/08 03:41:56;;;;;;;11.13;7.07;;;19.20;10.20;;;;;;5043958;28;20458;-67
2023/07/08 03:44:23;;;;;;;13.53;7.90;;;19.20;10.50;;;;;;5045322;28;20851;-67
2023/07/08 03:46:51;;;;;;;11.40;7.50;;;19.20;10.80;;;;;;5044576;28;20841;-67
2023/07/08 03:49:21;;;;;;;11.33;7.17;;;19.20;11.20;;;;;;5044806;28;20465;-67
2023/07/08 03:51:49;;;;;;;11.90;7.27;;;19.20;11.40;;;;;;5045137;28;20507;-67
2023/07/08 03:54:16;;;;;;;13.17;7.67;;;19.20;12.30;;;;;;5039738;28;20861;-67
2023/07/08 03:56:43;;;;;;;14.73;7.73;;;19.20;13.20;;;;;;5045806;28;20492;-68
2023/07/08 03:59:11;;;;;;;11.30;7.40;;;19.10;14.00;;;;;;5042470;28;20457;-68
2023/07/08 04:01:40;;;;;;;13.23;7.70;;;19.10;14.00;;;;;;5040845;28;20970;-68
2023/07/08 04:04:10;;;;;;;11.70;6.37;;;19.00;13.20;;;;;;5043837;28;21184;-68
2023/07/08 04:06:37;;;;;;;10.73;6.87;;;19.00;10.80;;;;;;5045334;28;20453;-68
2023/07/08 04:09:04;;;;;;;18.10;7.80;;;19.00;10.20;;;;;;5048768;28;20450;-68
2023/07/08 04:11:31;;;;;;;16.33;8.63;;;19.00;10.20;;;;;;5044671;28;20476;-66
2023/07/08 04:13:57;;;;;;;15.00;9.40;;;19.10;12.30;;;;;;5042973;28;21204;-68
2023/07/08 04:16:28;;;;;;;14.50;8.10;;;19.10;12.00;;;;;;5049852;28;20470;-68
2023/07/08 04:18:55;;;;;;;12.67;7.77;;;19.20;11.90;;;;;;5047153;28;20462;-68
2023/07/08 04:21:24;;;;;;;11.13;7.57;;;19.20;11.80;;;;;;5044078;28;20462;-68
2023/07/08 04:23:52;;;;;;;13.10;7.20;;;19.20;12.50;;;;;;5049043;28;20473;-68
2023/07/08 04:26:19;;;;;;;13.00;8.00;;;19.20;12.70;;;;;;5049410;28;20458;-67
2023/07/08 04:28:46;;;;;;;15.87;8.23;;;19.30;13.00;;;;;;5048642;28;20563;-68
2023/07/08 04:31:13;;;;;;;14.83;9.33;;;19.30;13.00;;;;;;5047947;28;20996;-67
2023/07/08 04:33:41;;;;;;;14.40;8.50;;;19.30;12.70;;;;;;5047881;28;20481;-68
2023/07/08 04:36:13;;;;;;;11.47;7.20;;;19.40;12.50;;;;;;5045645;28;20994;-68
2023/07/08 04:38:41;;;;;;;13.03;7.93;;;19.40;12.70;;;;;;5047163;28;20493;-67
2023/07/08 04:41:08;;;;;;;13.83;8.37;;;19.30;13.50;;;;;;5046777;28;20949;-68
2023/07/08 04:43:35;;;;;;;12.80;8.00;;;19.30;14.00;;;;;;5043493;28;21288;-68
2023/07/08 04:46:02;;;;;;;16.50;9.53;;;19.30;14.60;;;;;;5046060;28;20458;-68
2023/07/08 04:48:29;;;;;;;14.97;9.13;;;19.30;14.40;;;;;;5045390;28;20454;-67
2023/07/08 04:50:57;;;;;;;13.03;8.53;;;19.40;14.10;;;;;;5048365;28;20442;-68
2023/07/08 04:53:24;;;;;;;12.40;8.63;;;19.40;14.20;;;;;;5042189;28;20589;-68
2023/07/08 04:55:53;;;;;;;16.30;8.70;;;19.50;15.50;;;;;;5046185;28;20858;-67
2023/07/08 04:58:20;;;;;;;12.50;7.93;;;19.50;15.60;;;;;;5048198;28;20466;-67
2023/07/08 05:00:47;;;;;;;17.23;8.03;;;19.60;14.40;;;;;;5045744;28;20484;-67
2023/07/08 05:03:14;;;;;;;12.40;7.70;;;19.60;13.60;;;;;;5047425;28;21489;-68
2023/07/08 05:05:41;;;;;;;12.33;7.40;;;19.60;12.80;;;;;;5046340;28;21256;-68
2023/07/08 05:08:09;;;;;;;11.90;7.67;;;19.70;12.50;;;;;;5047692;28;21391;-68
2023/07/08 05:10:36;;;;;;;12.83;7.97;;;19.70;12.60;;;;;;5045338;28;20457;-68
2023/07/08 05:13:03;;;;;;;16.67;8.20;;;19.80;12.60;;;;;;5045205;28;20473;-68
2023/07/08 05:15:30;;;;;;;10.70;7.30;;;19.80;13.10;;;;;;5043651;28;20466;-68
2023/07/08 05:17:56;;;;;;;12.47;6.87;;;19.90;13.10;;;;;;5047870;28;20484;-68
2023/07/08 05:20:23;;;;;;;12.60;8.57;;;19.90;14.20;;;;;;5045732;28;20470;-68
2023/07/08 05:22:51;;;;;;;14.20;8.50;;;19.90;13.40;;;;;;5048561;28;20475;-67
2023/07/08 05:25:20;;;;;;;11.90;7.60;;;20.00;13.20;;;;;;5047120;28;20457;-67
2023/07/08 05:27:47;;;;;;;17.60;8.77;;;20.10;12.20;;;;;;5048451;28;20462;-67
2023/07/08 05:30:17;;;;;;;11.33;7.13;;;20.10;11.60;;;;;;5046952;28;20466;-67
2023/07/08 05:32:44;;;;;;;13.87;8.60;;;20.20;11.40;;;;;;5045497;28;20888;-67
2023/07/08 05:35:10;;;;;;;13.00;7.13;;;20.30;11.50;;;;;;5046027;28;20489;-67
2023/07/08 05:37:39;;;;;;;12.73;7.73;;;20.50;11.60;;;;;;5045214;28;20455;-68
2023/07/08 05:40:07;;;;;;;12.87;7.80;;;20.70;11.40;;;;;;5047435;28;20488;-67
2023/07/08 05:42:35;;;;;;;11.13;7.20;;;20.90;11.10;;;;;;5042225;28;20486;-67
2023/07/08 05:45:02;;;;;;;13.30;7.87;;;21.10;10.60;;;;;;5043775;28;20489;-67
2023/07/08 05:47:29;;;;;;;14.37;7.87;;;21.30;10.40;;;;;;5045122;28;20477;-67
2023/07/08 05:49:55;;;;;;;17.17;7.77;;;21.60;10.00;;;;;;5047679;28;20465;-67
2023/07/08 05:52:22;;;;;;;12.53;7.50;;;22.00;9.80;;;;;;5047553;28;20887;-67
2023/07/08 05:54:49;;;;;;;11.50;7.07;;;22.40;8.90;;;;;;5046763;28;20492;-67
2023/07/08 05:57:15;;;;;;;11.90;8.20;;;22.50;9.00;;;;;;5046520;28;20459;-67
2023/07/08 05:59:44;;;;;;;13.50;7.70;;;22.60;9.10;;;;;;5044054;28;20470;-67
2023/07/08 06:02:12;;;;;;;14.37;8.10;;;22.70;9.20;;;;;;5043143;28;21013;-67
2023/07/08 06:04:38;;;;;;;15.03;9.03;;;22.70;8.80;;;;;;5047461;28;20474;-67
2023/07/08 06:07:06;;;;;;;13.97;8.93;;;22.60;9.00;;;;;;5045895;28;20467;-68
2023/07/08 06:09:32;;;;;;;14.70;8.03;;;22.60;8.90;;;;;;5047750;28;20470;-67
2023/07/08 06:11:59;;;;;;;13.00;8.13;;;22.60;8.80;;;;;;5047985;28;20461;-67
2023/07/08 06:14:27;;;;;;;13.70;8.00;;;22.50;8.20;;;;;;5045584;28;20484;-67
2023/07/08 06:16:55;;;;;;;15.03;8.53;;;22.50;8.40;;;;;;5034332;28;20466;-67
2023/07/08 06:19:22;;;;;;;13.50;9.23;;;22.50;8.70;;;;;;5039689;28;20501;-67
2023/07/08 06:21:49;;;;;;;13.70;8.93;;;22.50;9.30;;;;;;5046398;28;20473;-67
2023/07/08 06:24:15;;;;;;;11.80;8.60;;;22.50;9.50;;;;;;5043244;28;20481;-67
2023/07/08 06:26:42;;;;;;;16.57;8.37;;;22.50;9.40;;;;;;5045222;28;20466;-67
2023/07/08 06:29:09;;;;;;;17.23;9.57;;;22.50;9.70;;;;;;5038182;28;20753;-67
2023/07/08 06:31:36;;;;;;;15.90;9.93;;;22.50;10.00;;;;;;5057753;22;20482;-65
2023/07/08 06:34:24;;;;;;;15.57;9.60;;;22.40;9.50;;;;;;5032687;28;20485;-66
2023/07/08 06:36:51;;;;;;;13.77;8.53;;;22.40;9.70;;;;;;5027640;28;20459;-66
2023/07/08 06:39:18;;;;;;;12.97;9.07;;;22.40;9.80;;;;;;5026716;28;20463;-66
2023/07/08 06:41:45;;;;;;;13.87;9.67;;;22.40;9.80;;;;;;5018761;28;20469;-66
2023/07/08 06:44:12;;;;;;;15.53;9.60;;;22.40;9.60;;;;;;5024334;28;20502;-65
2023/07/08 06:46:39;;;;;;;13.30;9.60;;;22.40;9.40;;;;;;5023339;28;20470;-66
2023/07/08 06:49:08;;;;;;;14.30;9.13;;;22.40;9.40;;;;;;5025158;28;20467;-66
2023/07/08 06:51:37;;;;;;;15.53;9.57;;;22.40;9.60;;;;;;5029581;28;20462;-66
2023/07/08 06:54:04;;;;;;;17.00;10.57;;;22.30;9.90;;;;;;5030782;28;20614;-66
2023/07/08 06:56:31;;;;;;;14.70;10.00;;;22.30;10.00;;;;;;5027013;28;20469;-66
2023/07/08 06:58:58;;;;;;;16.33;8.67;;;22.40;10.10;;;;;;5024910;28;20467;-66
2023/07/08 07:01:24;;;;;;;16.60;9.37;;;22.40;10.10;;;;;;5032212;28;20501;-66
2023/07/08 07:03:51;;;;;;;13.10;9.30;;;22.40;10.00;;;;;;5029194;28;20494;-66
2023/07/08 07:06:18;;;;;;;14.83;9.67;;;22.40;9.90;;;;;;5028031;28;20473;-66
2023/07/08 07:08:46;;;;;;;12.83;9.00;;;22.50;10.20;;;;;;5017504;28;20475;-65
2023/07/08 07:11:12;;;;;;;17.17;9.60;;;22.50;10.40;;;;;;5019621;28;20895;-65
2023/07/08 07:13:39;;;;;;;17.93;10.50;;;22.50;10.30;;;;;;5023145;28;20483;-66
2023/07/08 07:16:06;;;;;;;14.17;8.67;;;22.60;10.30;;;;;;5025092;28;20499;-66
2023/07/08 07:18:32;;;;;;;13.63;9.27;;;22.70;10.00;;;;;;5021436;28;20462;-65
2023/07/08 07:21:00;;;;;;;13.20;9.10;;;22.90;9.80;;;;;;5022829;28;20463;-67
2023/07/08 07:23:26;;;;;;;13.87;9.80;;;23.00;9.60;;;;;;5024504;28;20485;-65
2023/07/08 07:25:55;;;;;;;14.50;9.67;;;23.10;9.70;;;;;;5028313;28;20505;-65
2023/07/08 07:28:21;;;;;;;14.93;9.30;;;23.20;9.50;;;;;;5025033;28;20482;-70
2023/07/08 07:30:48;;;;;;;13.70;8.97;;;23.30;9.20;;;;;;5023851;28;20478;-66
2023/07/08 07:33:15;;;;;;;13.87;9.00;;;23.50;9.30;;;;;;5021722;28;21261;-66
2023/07/08 07:35:45;;;;;;;15.70;8.80;;;23.60;9.00;;;;;;5024196;28;20487;-67
2023/07/08 07:38:12;;;;;;;13.13;8.03;;;23.80;8.70;;;;;;5024680;28;20570;-66
2023/07/08 07:40:40;;;;;;;13.53;9.13;;;23.90;8.40;;;;;;5034511;28;20488;-66
2023/07/08 07:43:08;;;;;;;14.83;9.17;;;23.90;7.80;;;;;;5023346;28;20894;-66
2023/07/08 07:45:35;;;;;;;12.33;7.70;;;23.90;7.50;;;;;;5027901;28;20466;-66
2023/07/08 07:48:02;;;;;;;13.73;8.57;;;24.00;7.40;;;;;;5026438;28;20462;-66
2023/07/08 07:50:28;;;;;;;13.90;7.40;;;24.00;7.40;;;;;;5025400;28;20470;-66
2023/07/08 07:52:55;;;;;;;13.87;8.10;;;24.20;7.30;;;;;;5025764;28;20497;-66
2023/07/08 07:55:22;;;;;;;16.93;8.13;;;24.30;7.10;;;;;;5032961;28;20896;-66
2023/07/08 07:57:49;;;;;;;11.80;8.50;;;24.30;7.10;;;;;;5035159;28;20458;-66
2023/07/08 08:00:17;;;;;;;11.83;7.13;;;24.40;6.70;;;;;;5024673;28;20901;-66
2023/07/08 08:02:44;;;;;;;14.40;8.37;;;24.40;6.50;;;;;;5020698;28;20467;-66
2023/07/08 08:05:10;;;;;;;15.00;9.90;;;24.50;6.90;;;;;;5026103;28;20462;-66
2023/07/08 08:07:37;;;;;;;12.40;7.83;;;24.50;6.80;;;;;;5023557;28;20975;-66
2023/07/08 08:10:04;;;;;;;14.13;8.50;;;24.60;6.50;;;;;;5025432;28;20478;-66
2023/07/08 08:12:31;;;;;;;13.67;7.60;;;24.60;6.20;;;;;;5032079;28;20466;-67
2023/07/08 08:14:58;;;;;;;11.60;7.20;;;24.70;5.90;;;;;;5025588;28;20482;-66
2023/07/08 08:17:26;;;;;;;16.57;8.97;;;24.70;6.00;;;;;;5032472;28;20850;-66
2023/07/08 08:19:52;;;;;;;13.73;7.37;;;24.80;5.80;;;;;;5029420;28;20463;-67
2023/07/08 08:22:21;;;;;;;11.70;7.10;;;24.90;6.10;;;;;;5031819;28;20470;-66
2023/07/08 08:24:47;;;;;;;13.53;8.60;;;25.00;6.20;;;;;;5029200;28;20479;-67
2023/07/08 08:27:14;;;;;;;13.70;8.20;;;25.10;5.90;;;;;;5036609;28;20463;-67
2023/07/08 08:29:42;;;;;;;13.20;7.97;;;25.20;5.80;;;;;;5025310;28;20458;-67
2023/07/08 08:32:09;;;;;;;12.17;7.90;;;25.20;5.90;;;;;;5028380;28;20471;-67
2023/07/08 08:34:37;;;;;;;11.93;7.50;;;25.30;5.50;;;;;;5026597;28;20509;-67
2023/07/08 08:37:04;;;;;;;13.40;8.80;;;25.40;5.60;;;;;;5030838;28;20467;-67
2023/07/08 08:39:31;;;;;;;11.37;8.40;;;25.60;5.10;;;;;;5026096;28;20473;-66
2023/07/08 08:41:58;;;;;;;13.77;7.93;;;25.70;5.00;;;;;;5027743;28;20466;-66
2023/07/08 08:44:30;;;;;;;11.57;6.93;;;25.90;4.80;;;;;;5032359;28;20479;-66
2023/07/08 08:47:05;;;;;;;11.30;7.57;;;26.00;4.80;;;;;;5025630;28;20879;-66
2023/07/08 08:49:38;;;;;;;14.17;7.70;;;26.20;4.40;;;;;;5029860;28;20457;-66
2023/07/08 08:52:07;;;;;;;12.47;7.17;;;26.40;4.10;;;;;;5029743;28;20463;-66
2023/07/08 08:54:35;;;;;;;13.10;7.87;;;26.70;3.60;;;;;;5032354;28;20481;-66
2023/07/08 08:57:12;;;;;;;11.00;7.23;;;27.50;3.50;;;;;;5031218;28;21373;-66
2023/07/08 08:59:44;;;;;;;11.27;7.33;;;28.60;1.60;;;;;;5027491;28;20460;-66
2023/07/08 09:02:27;;;;;;;11.50;7.87;;;29.50;1.00;;;;;;5027652;28;20486;-66
2023/07/08 09:04:53;;;;;;;18.83;13.53;;;30.10;1.00;;;;;;5023341;28;20892;-66
2023/07/08 09:07:22;;;;;;;14.37;8.80;;;30.90;1.00;;;;;;5029278;28;20872;-66
2023/07/08 09:10:02;;;;;;;10.83;6.63;;;32.20;1.00;;;;;;5032319;28;20463;-67
2023/07/08 09:12:31;;;;;;;12.90;7.30;;;33.60;1.00;;;;;;5027399;28;20515;-67
2023/07/08 09:14:58;;;;;;;9.47;6.73;;;34.70;1.00;;;;;;5027975;28;20483;-67
2023/07/08 09:17:31;;;;;;;10.40;6.40;;;34.80;1.00;;;;;;5030208;28;20473;-67
2023/07/08 09:20:06;;;;;;;10.37;6.23;;;34.30;1.00;;;;;;5027265;28;21134;-67
2023/07/08 09:22:39;;;;;;;9.37;5.93;;;33.80;1.00;;;;;;5029687;28;20456;-67
2023/07/08 09:25:20;;;;;;;10.00;5.97;;;33.20;1.00;;;;;;5030280;28;20534;-67
2023/07/08 09:27:48;;;;;;;10.00;6.67;;;32.70;1.00;;;;;;5027408;28;20462;-67
2023/07/08 09:30:17;;;;;;;12.53;6.40;;;32.20;1.00;;;;;;5024403;28;20479;-67
2023/07/08 09:32:43;;;;;;;9.87;5.90;;;31.80;1.00;;;;;;5028946;28;20493;-67
2023/07/08 09:35:19;;;;;;;9.97;6.23;;;31.40;1.00;;;;;;5030107;28;20478;-66
2023/07/08 09:37:48;;;;;;;11.13;7.33;;;31.00;1.00;;;;;;5025399;28;20474;-67
2023/07/08 09:40:18;;;;;;;9.53;6.00;;;30.60;1.00;;;;;;5020775;28;20481;-67
2023/07/08 09:42:49;;;;;;;15.27;6.70;;;30.20;1.00;;;;;;5021226;28;20477;-67
2023/07/08 09:45:19;;;;;;;9.93;6.10;;;29.80;1.00;;;;;;5023340;28;20459;-67
2023/07/08 09:47:47;;;;;;;12.83;5.63;;;29.50;1.00;;;;;;5027241;28;20470;-67
2023/07/08 09:50:20;;;;;;;11.47;6.30;;;29.20;1.00;;;;;;5029731;28;20467;-67
2023/07/08 09:52:49;;;;;;;12.70;5.90;;;28.90;1.00;;;;;;5024816;28;20494;-69
2023/07/08 09:55:17;;;;;;;12.40;6.10;;;28.60;1.00;;;;;;5023205;28;20494;-65
2023/07/08 09:57:46;;;;;;;9.20;6.00;;;28.40;1.00;;;;;;5026711;28;20483;-66
2023/07/08 10:00:15;;;;;;;8.43;5.40;;;28.20;1.00;;;;;;5017145;28;20486;-66
2023/07/08 10:02:45;;;;;;;8.63;5.83;;;28.20;1.20;;;;;;5025967;28;20471;-66
2023/07/08 10:05:18;;;;;;;10.57;6.10;;;28.20;1.50;;;;;;5026392;28;20474;-66
2023/07/08 10:07:46;;;;;;;10.50;6.80;;;28.20;1.50;;;;;;5021314;28;20556;-66
2023/07/08 10:10:18;;;;;;;11.83;6.43;;;28.20;2.10;;;;;;5022886;28;20510;-66
2023/07/08 10:12:54;;;;;;;12.40;6.10;;;28.30;2.50;;;;;;5023831;28;20471;-66
2023/07/08 10:15:28;;;;;;;11.47;6.77;;;28.30;3.00;;;;;;5025214;28;20475;-66
2023/07/08 10:17:55;;;;;;;11.43;5.60;;;28.30;2.70;;;;;;5021303;28;20467;-66
2023/07/08 10:20:24;;;;;;;10.03;5.07;;;28.40;2.70;;;;;;5024029;28;20473;-66
2023/07/08 10:23:02;;;;;;;10.53;5.83;;;28.70;2.10;;;;;;5017171;28;20474;-66
2023/07/08 10:25:45;;;;;;;9.40;5.60;;;29.10;1.70;;;;;;5018898;28;20467;-65
2023/07/08 10:28:26;;;;;;;8.23;4.70;;;29.70;1.00;;;;;;5024092;28;20466;-65
2023/07/08 10:31:02;;;;;;;8.60;4.77;;;30.20;1.00;;;;;;5024986;28;20478;-64
2023/07/08 10:33:57;;;;;;;7.73;4.20;;;30.40;1.00;;;;;;5022954;28;20570;-65
2023/07/08 10:36:39;;;;;;;10.43;5.27;;;30.40;1.00;;;;;;5022713;28;20479;-65
2023/07/08 10:39:32;;;;;;;11.80;5.60;;;30.30;1.00;;;;;;5023200;28;20509;-65
2023/07/08 10:42:09;;;;;;;10.20;4.97;;;30.10;1.00;;;;;;5024867;28;20463;-65
2023/07/08 10:44:40;;;;;;;9.73;5.37;;;29.90;1.00;;;;;;5019675;28;20495;-65
2023/07/08 10:47:21;;;;;;;7.00;3.80;;;29.70;1.00;;;;;;5021414;28;20479;-65
2023/07/08 10:50:05;;;;;;;8.90;3.90;;;29.70;1.00;;;;;;5020318;28;20473;-65
2023/07/08 10:52:41;;;;;;;12.57;5.87;;;29.60;1.00;;;;;;5019495;28;20821;-65
2023/07/08 10:55:20;;;;;;;11.07;4.70;;;29.50;1.00;;;;;;5022770;28;20505;-65
2023/07/08 10:58:09;;;;;;;7.73;4.00;;;29.30;1.00;;;;;;5023110;28;20486;-66
2023/07/08 11:00:43;;;;;;;6.70;3.73;;;29.20;1.00;;;;;;5022203;28;20545;-63
2023/07/08 11:03:47;;;;;;;12.87;3.33;;;29.20;1.00;;;;;;5022369;28;20854;-68
2023/07/08 11:06:19;;;;;;;8.00;3.70;;;29.20;1.00;;;;;;5021500;28;20462;-68
2023/07/08 11:08:50;;;;;;;9.70;4.23;;;29.10;1.00;;;;;;5025573;28;20463;-67
2023/07/08 11:11:31;;;;;;;9.33;4.33;;;29.20;1.00;;;;;;5022305;28;20474;-67
2023/07/08 11:14:05;;;;;;;7.40;3.87;;;29.20;1.00;;;;;;5023042;28;20486;-67
2023/07/08 11:16:35;;;;;;;8.10;3.70;;;29.20;1.00;;;;;;5023133;28;20499;-67
2023/07/08 11:19:05;;;;;;;7.67;3.50;;;29.30;1.00;;;;;;5024696;28;20535;-67
2023/07/08 11:21:37;;;;;;;9.50;3.70;;;29.30;1.00;;;;;;5020456;28;20471;-66
2023/07/08 11:24:11;;;;;;;6.93;3.63;;;29.40;1.00;;;;;;5024791;28;20487;-66
2023/07/08 11:26:44;;;;;;;7.90;3.47;;;29.50;1.00;;;;;;5022510;28;20459;-70
2023/07/08 11:29:19;;;;;;;8.10;4.37;;;29.50;1.00;;;;;;5018686;28;20474;-68
2023/07/08 11:31:47;;;;;;;6.37;3.90;;;29.50;1.00;;;;;;5020764;28;21171;-65
2023/07/08 11:34:15;;;;;;;8.27;4.27;;;29.60;1.00;;;;;;5029893;28;20882;-67
2023/07/08 11:36:43;;;;;;;10.57;3.80;;;29.60;1.00;;;;;;5027427;28;20481;-67
2023/07/08 11:39:28;;;;;;;7.47;3.90;;;29.70;1.00;;;;;;5028154;28;20458;-66
2023/07/08 11:42:20;;;;;;;6.20;3.50;;;29.90;1.00;;;;;;5028295;28;20548;-66
2023/07/08 11:44:52;;;;;;;9.00;3.60;;;30.00;1.00;;;;;;5023253;28;20495;-66
2023/07/08 11:47:25;;;;;;;8.23;3.70;;;30.10;1.00;;;;;;5027940;28;20459;-64
2023/07/08 11:49:53;;;;;;;7.17;3.83;;;30.10;1.00;;;;;;5031515;28;20541;-64
2023/07/08 11:52:21;;;;;;;6.80;3.50;;;30.10;1.00;;;;;;5029737;28;20458;-64
2023/07/08 11:54:55;;;;;;;8.40;3.73;;;30.00;1.00;;;;;;5022504;28;20490;-64
2023/07/08 11:57:28;;;;;;;7.80;4.10;;;30.00;1.00;;;;;;5026784;28;20490;-64
2023/07/08 12:00:19;;;;;;;7.27;3.60;;;29.90;1.00;;;;;;5023692;28;20470;-66
2023/07/08 12:02:51;;;;;;;6.37;2.80;;;29.80;1.00;;;;;;5031691;28;20462;-64
2023/07/08 12:05:18;;;;;;;6.90;3.40;;;29.80;1.00;;;;;;5027148;28;21030;-64
2023/07/08 12:07:47;;;;;;;8.07;3.40;;;29.70;1.00;;;;;;5023616;28;20472;-64
2023/07/08 12:10:18;;;;;;;10.33;4.30;;;29.70;1.00;;;;;;5026605;28;20499;-65
2023/07/08 12:12:47;;;;;;;8.27;3.50;;;29.70;1.00;;;;;;5022314;28;20839;-64
2023/07/08 12:15:22;;;;;;;7.53;3.67;;;29.60;1.00;;;;;;5025057;28;20467;-65
2023/07/08 12:17:51;;;;;;;9.57;3.63;;;29.60;1.00;;;;;;5022623;28;20470;-64
2023/07/08 12:20:22;;;;;;;9.30;3.80;;;29.60;1.00;;;;;;5028750;28;20935;-64
2023/07/08 12:22:49;;;;;;;8.00;3.57;;;29.70;1.00;;;;;;5020268;28;20571;-64
2023/07/08 12:25:18;;;;;;;6.93;3.77;;;29.70;1.00;;;;;;5028314;28;20474;-65
2023/07/08 12:27:47;;;;;;;8.60;3.60;;;29.70;1.00;;;;;;5027765;28;20866;-64
2023/07/08 12:30:15;;;;;;;6.73;3.53;;;29.80;1.00;;;;;;5023533;28;20471;-64
2023/07/08 12:32:46;;;;;;;7.07;3.80;;;29.80;1.00;;;;;;5026282;28;20488;-64
2023/07/08 12:35:21;;;;;;;7.30;3.70;;;29.80;1.00;;;;;;5027317;28;20521;-64
2023/07/08 12:37:48;;;;;;;6.07;3.10;;;29.90;1.00;;;;;;5026399;28;21013;-65
2023/07/08 12:40:16;;;;;;;5.77;3.03;;;30.00;1.00;;;;;;5028662;28;20474;-65
2023/07/08 12:42:42;;;;;;;6.80;3.53;;;30.10;1.00;;;;;;5026322;28;20558;-64
2023/07/08 12:45:16;;;;;;;8.10;4.00;;;30.20;1.00;;;;;;5027416;28;20466;-64
2023/07/08 12:47:45;;;;;;;9.83;4.23;;;30.30;1.00;;;;;;5026195;28;20490;-65
2023/07/08 12:50:14;;;;;;;7.60;3.97;;;30.30;1.00;;;;;;5023494;28;20477;-65
2023/07/08 12:52:41;;;;;;;6.23;3.30;;;30.20;1.00;;;;;;5047809;22;20499;-65
2023/07/08 12:55:10;;;;;;;7.63;3.73;;;30.20;1.00;;;;;;5029680;28;20905;-66
2023/07/08 12:57:37;;;;;;;7.30;3.50;;;30.20;1.00;;;;;;5028486;28;21041;-66